Thunder radar more information blitzortung!


Radar de pluja more information rain snow radar


Visita la nostra xarxa de llocs de meteo:

Template documentation
and downloads

And another site



No particular awareness of the weather is required.    There are no Weather-warnings

Pagina Historial Weather Underground text

Diari Resum Juliol 30, 2017 Unitats:  Mètric    Imperial   Tant
« Previous Dia
SegĂźent Dia »
Diari Setmana Mensual Anual Personalitzada
  Maxima: Minima: Media:
Temperatura: -17.8 °C -6.7 °C -2.3 °C
Punt de rosada: -17.8 °C -9.5 °C -8.1 °C
Humitat: Humidity % 34 % 55 %
Wind Speed: 0 km/h 0 km/h 12.9 km/h
RĂ fegues de vent: 0 km/h - -
Vent:- - East
Pression baro: 0 hPa 34164.7 hPa -
Precipitacions: 0 mm    
Historical Graphs
 
 
Dades de taula per Juliol 30, 2017
Temps Temperatura Punt de rosada Pression baro Vent Wind Speed RĂ fegues de vent Humitat Rainfall Rate (Hourly)
-17.8 °C -17.8 °C 0 hPa Calm     Humidity % 0 mm
00:00 -6.1 °C -9.5 °C 34256.2 hPa Calm   5.1 km/h 68 % 0 mm
00:04 -4.1 °C -8.7 °C 34327.3 hPa Calm     60 % 0 mm
00:09 -4.2 °C -8.8 °C 34327.3 hPa Calm     60 % 0 mm
00:10 -6.2 °C -9.4 °C 34256.2 hPa Calm   2.6 km/h 70 % 0 mm
00:14 -4.2 °C -8.6 °C 34327.3 hPa WNW 3.1 km/h   61 % 0 mm
00:19 -4.2 °C -8.7 °C 34327.3 hPa Calm     61 % 0 mm
00:20 -6.3 °C -9.3 °C 34256.2 hPa Calm     71 % 0 mm
00:24 -4.2 °C -8.5 °C 34327.3 hPa Calm     62 % 0 mm
00:29 -4.3 °C -8.6 °C 34327.3 hPa Calm     62 % 0 mm
00:30 -6.4 °C -9.4 °C 34256.2 hPa Calm   2.6 km/h 71 % 0 mm
00:34 -4.3 °C -8.7 °C 34327.3 hPa Calm     62 % 0 mm
00:40 -6.4 °C -9.3 °C 34256.2 hPa Calm   5.1 km/h 72 % 0 mm
00:50 -6.4 °C -9.2 °C 34256.2 hPa Calm     73 % 0 mm
01:00 -6.5 °C -9.3 °C 34256.2 hPa Calm     73 % 0 mm
01:10 -6.6 °C -9.3 °C 34256.2 hPa Calm     73 % 0 mm
01:20 -6.6 °C -9.3 °C 34256.2 hPa Calm     73 % 0 mm
01:30 -6.5 °C -9.3 °C 34256.2 hPa Calm     73 % 0 mm
01:40 -6.6 °C -9.4 °C 34256.2 hPa Calm     73 % 0 mm
01:50 -6.7 °C -9.4 °C 34256.2 hPa Calm     74 % 0 mm
02:00 -6.7 °C -9.3 °C 34256.2 hPa Calm     75 % 0 mm
02:10 -6.7 °C -9.3 °C 34256.2 hPa Calm     75 % 0 mm
02:20 -6.6 °C -9.3 °C 34256.2 hPa Calm     74 % 0 mm
02:30 -6.6 °C -9.2 °C 34256.2 hPa Calm     74 % 0 mm
02:40 -6.3 °C -8.9 °C 34256.2 hPa Calm   2.6 km/h 74 % 0 mm
02:50 -6.2 °C -9.1 °C 34222.3 hPa ESE 2.6 km/h 2.6 km/h 72 % 0 mm
03:00 -6.2 °C -9.2 °C 34222.3 hPa South 5.1 km/h 5.1 km/h 71 % 0 mm
03:10 -5.8 °C -8.9 °C 34256.2 hPa Calm   5.1 km/h 71 % 0 mm
03:20 -5.8 °C -8.9 °C 34222.3 hPa Calm   5.1 km/h 70 % 0 mm
03:30 -5.4 °C -8.9 °C 34222.3 hPa WSW 2.6 km/h 5.1 km/h 68 % 0 mm
03:40 -5.2 °C -8.7 °C 34256.2 hPa SW 2.6 km/h 5.1 km/h 68 % 0 mm
03:50 -5.2 °C -8.7 °C 34256.2 hPa SW 2.6 km/h 5.1 km/h 67 % 0 mm
04:00 -4.7 °C -8.4 °C 34256.2 hPa Calm   2.6 km/h 66 % 0 mm
04:10 -4.3 °C -8.7 °C 34256.2 hPa NNE 2.6 km/h 5.1 km/h 62 % 0 mm
04:20 -3.9 °C -8.6 °C 34256.2 hPa NE 5.1 km/h 5.1 km/h 60 % 0 mm
04:30 -3.6 °C -8.7 °C 34256.2 hPa ENE 2.6 km/h 5.1 km/h 57 % 0 mm
04:40 -3.5 °C -8.9 °C 34256.2 hPa ENE 2.6 km/h 7.7 km/h 55 % 0 mm
04:50 -3.3 °C -8.9 °C 34256.2 hPa East 5.1 km/h 7.7 km/h 54 % 0 mm
05:10 -2.3 °C -8.3 °C 34256.2 hPa Calm   5.1 km/h 52 % 0 mm
05:20 -2.6 °C -8.7 °C 34222.3 hPa ESE 7.7 km/h 7.7 km/h 51 % 0 mm
05:30 -2.4 °C -8.8 °C 34222.3 hPa ESE 7.7 km/h 7.7 km/h 50 % 0 mm
05:40 -2.3 °C -8.5 °C 34256.2 hPa East 5.1 km/h 10.3 km/h 51 % 0 mm
05:50 -2.2 °C -8.5 °C 34256.2 hPa East 7.7 km/h 10.3 km/h 50 % 0 mm
06:00 -1.9 °C -8.3 °C 34256.2 hPa East 7.7 km/h 10.3 km/h 50 % 0 mm
06:10 -1.4 °C -8.2 °C 34256.2 hPa East 7.7 km/h 10.3 km/h 48 % 0 mm
06:20 -1.6 °C -8.2 °C 34256.2 hPa ENE 7.7 km/h 10.3 km/h 49 % 0 mm
11:30 -1 °C -7.8 °C 34256.2 hPa SSW 6.3 km/h 8 km/h 48 % 0 mm
11:35 -0.6 °C -7.4 °C 34256.2 hPa West 5.6 km/h 5.6 km/h 48 % 0 mm
11:45 -0.4 °C -7.4 °C 34256.2 hPa SE 11.9 km/h 11.9 km/h 47 % 0 mm
11:50 -0.9 °C -7.9 °C 34256.2 hPa ESE 17.9 km/h 17.9 km/h 47 % 0 mm
11:54 -0.5 °C -7.7 °C 34256.2 hPa SSE 9 km/h 9 km/h 46 % 0 mm
11:55 -0.5 °C -7.7 °C 34256.2 hPa West 9 km/h 9 km/h 46 % 0 mm
12:00 -0.6 °C -7.6 °C 34256.2 hPa East 9 km/h 9 km/h 47 % 0 mm
12:05 -0.3 °C -7.4 °C 34256.2 hPa SSW 6 km/h 6 km/h 47 % 0 mm
12:10 0 °C -7.3 °C 34256.2 hPa SW 9 km/h 9 km/h 46 % 0 mm
12:15 -0.2 °C -7.3 °C 34256.2 hPa ENE 9 km/h 9 km/h 47 % 0 mm
12:20 -0.3 °C -7.4 °C 34222.3 hPa ENE 17.9 km/h 17.9 km/h 47 % 0 mm
12:25 -0.6 °C -7.6 °C 34222.3 hPa ENE 11.9 km/h 14 km/h 47 % 0 mm
12:30 -0.6 °C -7.6 °C 34222.3 hPa ENE 11.9 km/h 11.9 km/h 47 % 0 mm
12:35 -0.3 °C -7.3 °C 34256.2 hPa NE 10.3 km/h 10.3 km/h 47 % 0 mm
12:40 -0.3 °C -7.4 °C 34256.2 hPa East 15 km/h 15 km/h 47 % 0 mm
12:45 -0.1 °C -7.2 °C 34256.2 hPa NE 6 km/h 6 km/h 47 % 0 mm
12:50 -0.2 °C -7.4 °C 34222.3 hPa ESE 16.6 km/h 16.6 km/h 46 % 0 mm
12:55 -0.4 °C -7.7 °C 34222.3 hPa East 26.9 km/h 26.9 km/h 46 % 0 mm
13:00 -0.4 °C -7.8 °C 34222.3 hPa East 27.7 km/h 27.7 km/h 45 % 0 mm
13:05 -0.2 °C -7.6 °C 34222.3 hPa ESE 20.9 km/h 20.9 km/h 45 % 0 mm
13:10 -0.3 °C -7.7 °C 34222.3 hPa SSE 20.3 km/h 20.3 km/h 45 % 0 mm
13:11 -0.3 °C -7.7 °C 34222.3 hPa East 20.9 km/h 20.9 km/h 45 % 0 mm
13:16 -0.3 °C -7.9 °C 34222.3 hPa SE 17.9 km/h 17.9 km/h 44 % 0 mm
13:21 -0.2 °C -7.8 °C 34222.3 hPa ESE 26.9 km/h 26.9 km/h 44 % 0 mm
13:26 -0.2 °C -7.9 °C 34222.3 hPa East 16.6 km/h 16.6 km/h 44 % 0 mm
13:31 0.1 °C -7.8 °C 34222.3 hPa East 29.8 km/h 29.8 km/h 43 % 0 mm
13:36 -0.1 °C -7.9 °C 34198.6 hPa SE 29.8 km/h 29.8 km/h 43 % 0 mm
13:41 -0.1 °C -7.9 °C 34198.6 hPa SE 20.9 km/h 20.9 km/h 43 % 0 mm
13:46 -0.1 °C -7.9 °C 34198.6 hPa ESE 23.8 km/h 23.8 km/h 43 % 0 mm
13:51 -0.2 °C -8.1 °C 34198.6 hPa ENE 20.9 km/h 23.3 km/h 43 % 0 mm
13:56 -0.2 °C -7.9 °C 34198.6 hPa ENE 32.8 km/h 32.8 km/h 44 % 0 mm
14:01 -0.1 °C -7.7 °C 34198.6 hPa NE 23.8 km/h 23.8 km/h 44 % 0 mm
14:06 -0.2 °C -8 °C 34198.6 hPa ESE 26.9 km/h 26.9 km/h 43 % 0 mm
14:11 0.1 °C -7.6 °C 34198.6 hPa ESE 26.4 km/h 26.4 km/h 44 % 0 mm
14:16 0.1 °C -7.7 °C 34198.6 hPa ENE 15.6 km/h 15.6 km/h 43 % 0 mm
14:21 0.1 °C -7.8 °C 34198.6 hPa SE 29.8 km/h 29.8 km/h 43 % 0 mm
14:26 0 °C -7.9 °C 34198.6 hPa ESE 27.7 km/h 27.7 km/h 43 % 0 mm
14:31 -0.1 °C -7.9 °C 34198.6 hPa ESE 26.9 km/h 26.9 km/h 43 % 0 mm
14:36 0.1 °C -7.7 °C 34198.6 hPa East 26.9 km/h 26.9 km/h 43 % 0 mm
14:41 0.1 °C -7.9 °C 34198.6 hPa ESE 20.9 km/h 22.5 km/h 42 % 0 mm
14:46 0.1 °C -7.9 °C 34198.6 hPa ESE 32.8 km/h 32.8 km/h 42 % 0 mm
14:51 0.2 °C -7.9 °C 34198.6 hPa East 26.9 km/h 26.9 km/h 42 % 0 mm
14:56 0.3 °C -7.8 °C 34198.6 hPa ESE 23.8 km/h 23.8 km/h 42 % 0 mm
15:01 0.2 °C -8.1 °C 34198.6 hPa East 34.1 km/h 34.1 km/h 41 % 0 mm
15:06 0.3 °C -7.8 °C 34222.3 hPa ESE 35.7 km/h 35.7 km/h 42 % 0 mm
15:16 0.2 °C -7.9 °C 34222.3 hPa ENE 26.9 km/h 26.9 km/h 42 % 0 mm
15:21 0.4 °C -7.7 °C 34222.3 hPa ENE 27.2 km/h 27.2 km/h 42 % 0 mm
15:26 0.3 °C -7.8 °C 34222.3 hPa NNE 29.8 km/h 29.8 km/h 42 % 0 mm
15:31 0.6 °C -8 °C 34222.3 hPa East 20.9 km/h 20.9 km/h 40 % 0 mm
15:36 0.6 °C -8.4 °C 34222.3 hPa SE 23.8 km/h 23.8 km/h 38 % 0 mm
15:41 0.8 °C -7.9 °C 34222.3 hPa East 17.9 km/h 17.9 km/h 39 % 0 mm
15:46 0.6 °C -8.2 °C 34222.3 hPa East 18.3 km/h 18.3 km/h 39 % 0 mm
15:51 0.5 °C -8.1 °C 34198.6 hPa ESE 23.8 km/h 23.8 km/h 40 % 0 mm
15:56 0.8 °C -8.4 °C 34198.6 hPa South 15 km/h 15 km/h 37 % 0 mm
16:01 1.2 °C -8.4 °C 34198.6 hPa East 11.9 km/h 11.9 km/h 36 % 0 mm
16:06 1.5 °C -7.6 °C 34198.6 hPa SW 16.1 km/h 16.1 km/h 38 % 0 mm
16:11 1.4 °C -7.9 °C 34198.6 hPa SW 15 km/h 15 km/h 37 % 0 mm
16:16 1.6 °C -8.1 °C 34198.6 hPa ESE 9 km/h 9 km/h 36 % 0 mm
16:21 1.4 °C -8.2 °C 34198.6 hPa SE 23.8 km/h 23.8 km/h 36 % 0 mm
16:26 1.4 °C -7.9 °C 34198.6 hPa South 6 km/h 6 km/h 37 % 0 mm
16:31 1.7 °C -8.2 °C 34198.6 hPa SSW 15 km/h 15 km/h 35 % 0 mm
16:37 1.6 °C -8.1 °C 34198.6 hPa South 9 km/h 9 km/h 36 % 0 mm
16:42 1.9 °C -8.2 °C 34198.6 hPa SSW 9 km/h 9 km/h 34 % 0 mm
16:47 1.3 °C -8.7 °C 34198.6 hPa ESE 17.9 km/h 17.9 km/h 34 % 0 mm
16:52 1.2 °C -8.3 °C 34198.6 hPa South 15 km/h 15 km/h 36 % 0 mm
16:57 1.2 °C -8.7 °C 34198.6 hPa NE 15 km/h 15 km/h 35 % 0 mm
17:02 1 °C -8.8 °C 34198.6 hPa NE 15 km/h 15 km/h 35 % 0 mm
17:07 1.1 °C -8.7 °C 34198.6 hPa SE 15 km/h 15 km/h 35 % 0 mm
17:12 1.1 °C -8.5 °C 34198.6 hPa ESE 20.9 km/h 20.9 km/h 36 % 0 mm
17:17 0.8 °C -8.7 °C 34198.6 hPa ESE 20.9 km/h 20.9 km/h 36 % 0 mm
17:22 0.4 °C -8.8 °C 34198.6 hPa ESE 23.8 km/h 23.8 km/h 37 % 0 mm
17:27 0.4 °C -8.6 °C 34198.6 hPa ENE 15 km/h 15 km/h 38 % 0 mm
17:32 0.5 °C -8.5 °C 34198.6 hPa ESE 15 km/h 15 km/h 38 % 0 mm
17:37 0.5 °C -8.5 °C 34198.6 hPa SE 23.8 km/h 23.8 km/h 38 % 0 mm
17:42 0.3 °C -8.4 °C 34198.6 hPa SSE 26.9 km/h 26.9 km/h 39 % 0 mm
17:47 0.2 °C -8.3 °C 34198.6 hPa ESE 11.9 km/h 11.9 km/h 40 % 0 mm
17:52 0 °C -8.3 °C 34198.6 hPa ENE 26.9 km/h 26.9 km/h 41 % 0 mm
17:55 -0.1 °C -8.4 °C 34198.6 hPa East 20.9 km/h 20.9 km/h 41 % 0 mm
18:00 -0.1 °C -8.2 °C 34198.6 hPa East 15 km/h 15.6 km/h 42 % 0 mm
18:05 -0.3 °C -8.4 °C 34198.6 hPa ENE 29.8 km/h 29.8 km/h 42 % 0 mm
18:10 -0.3 °C -8.2 °C 34198.6 hPa NE 23.8 km/h 23.8 km/h 43 % 0 mm
18:15 -0.5 °C -8.3 °C 34198.6 hPa ESE 23.8 km/h 23.8 km/h 43 % 0 mm
18:20 -0.6 °C -8.2 °C 34198.6 hPa ESE 23.8 km/h 23.8 km/h 44 % 0 mm
18:25 -0.8 °C -8.2 °C 34198.6 hPa NE 26.9 km/h 26.9 km/h 45 % 0 mm
18:30 -0.8 °C -8.2 °C 34198.6 hPa East 17.9 km/h 17.9 km/h 45 % 0 mm
18:35 -0.9 °C -8.1 °C 34198.6 hPa East 26.9 km/h 26.9 km/h 46 % 0 mm
18:40 -0.9 °C -8.1 °C 34198.6 hPa ESE 27.7 km/h 27.7 km/h 46 % 0 mm
18:45 -0.9 °C -7.9 °C 34198.6 hPa ENE 17.9 km/h 17.9 km/h 47 % 0 mm
18:50 -0.9 °C -7.9 °C 34198.6 hPa ESE 25.4 km/h 25.4 km/h 47 % 0 mm
18:55 -1.2 °C -7.9 °C 34198.6 hPa NE 26.9 km/h 26.9 km/h 48 % 0 mm
19:00 -1.2 °C -7.8 °C 34198.6 hPa ENE 23.8 km/h 23.8 km/h 49 % 0 mm
19:05 -1.3 °C -7.9 °C 34198.6 hPa East 20.9 km/h 20.9 km/h 49 % 0 mm
19:10 -1.5 °C -7.9 °C 34198.6 hPa ENE 23.8 km/h 23.8 km/h 50 % 0 mm
19:15 -1.5 °C -7.7 °C 34198.6 hPa ENE 20.9 km/h 20.9 km/h 51 % 0 mm
19:20 -1.6 °C -7.6 °C 34198.6 hPa East 23.8 km/h 23.8 km/h 52 % 0 mm
19:25 -1.6 °C -7.7 °C 34198.6 hPa ENE 20.9 km/h 20.9 km/h 52 % 0 mm
19:30 -1.8 °C -7.4 °C 34198.6 hPa ESE 26.9 km/h 26.9 km/h 54 % 0 mm
19:35 -1.9 °C -7.4 °C 34198.6 hPa ESE 23.8 km/h 23.8 km/h 55 % 0 mm
19:40 -1.9 °C -7.4 °C 34198.6 hPa ESE 15 km/h 15 km/h 55 % 0 mm
19:45 -1.9 °C -7.4 °C 34198.6 hPa ESE 22 km/h 22 km/h 55 % 0 mm
19:50 -2 °C -7.3 °C 34198.6 hPa ESE 17.9 km/h 17.9 km/h 56 % 0 mm
19:55 -2.1 °C -7.4 °C 34198.6 hPa ESE 26.9 km/h 26.9 km/h 56 % 0 mm
20:00 -2.2 °C -7.4 °C 34198.6 hPa ESE 16.1 km/h 16.1 km/h 57 % 0 mm
20:05 -2.3 °C -7.4 °C 34198.6 hPa East 17.9 km/h 17.9 km/h 57 % 0 mm
20:10 -2.3 °C -7.3 °C 34198.6 hPa ESE 17.9 km/h 17.9 km/h 58 % 0 mm
20:15 -2.4 °C -7.6 °C 34198.6 hPa ESE 20.9 km/h 20.9 km/h 57 % 0 mm
20:20 -2.5 °C -7.7 °C 34198.6 hPa ESE 19.2 km/h 19.2 km/h 57 % 0 mm
20:25 -2.6 °C -7.7 °C 34198.6 hPa ENE 20.9 km/h 20.9 km/h 57 % 0 mm
20:30 -2.6 °C -7.9 °C 34198.6 hPa ESE 15 km/h 15 km/h 56 % 0 mm
20:35 -2.6 °C -7.9 °C 34198.6 hPa SE 11.9 km/h 11.9 km/h 56 % 0 mm
20:40 -2.7 °C -7.9 °C 34198.6 hPa East 15 km/h 15 km/h 56 % 0 mm
20:45 -2.7 °C -8.2 °C 34198.6 hPa ENE 11.9 km/h 11.9 km/h 55 % 0 mm
20:50 -2.8 °C -8.2 °C 34222.3 hPa ENE 11.1 km/h 11.1 km/h 55 % 0 mm
20:55 -2.8 °C -8.1 °C 34222.3 hPa ENE 11.9 km/h 11.9 km/h 56 % 0 mm
21:00 -2.9 °C -8 °C 34222.3 hPa ENE 15 km/h 15 km/h 57 % 0 mm
21:05 -2.9 °C -8.1 °C 34164.7 hPa East 9 km/h 9 km/h 57 % 0 mm
21:10 -3.1 °C -8 °C 34164.7 hPa ESE 9.3 km/h 9.3 km/h 58 % 0 mm
21:11 -3.1 °C -8 °C 34164.7 hPa ENE 9.3 km/h 9.3 km/h 58 % 0 mm
21:16 -3.1 °C -8.1 °C 34164.7 hPa ENE 11.9 km/h 11.9 km/h 58 % 0 mm
21:20 -4.8 °C -7.4 °C 34198.6 hPa NE 5.1 km/h 5.1 km/h 75 % 0 mm
21:21 -3.2 °C -7.8 °C 34198.6 hPa East 15.3 km/h 15.3 km/h 60 % 0 mm
21:26 -3.3 °C -7.8 °C 34198.6 hPa NNE 15 km/h 15 km/h 61 % 0 mm
21:30 -4.9 °C -7.5 °C 34198.6 hPa NE 5.1 km/h 7.7 km/h 75 % 0 mm
21:31 -3.3 °C -7.8 °C 34198.6 hPa NNE 8 km/h 8 km/h 61 % 0 mm
21:36 -3.4 °C -7.9 °C 34198.6 hPa NE 11.9 km/h 11.9 km/h 61 % 0 mm
21:40 -4.9 °C -7.4 °C 34198.6 hPa Calm   5.1 km/h 76 % 0 mm
21:41 -3.4 °C -7.7 °C 34198.6 hPa East 9 km/h 9 km/h 62 % 0 mm
21:46 -3.5 °C -7.7 °C 34198.6 hPa NE 15 km/h 15 km/h 63 % 0 mm
21:50 -4.9 °C -7.6 °C 34198.6 hPa NE 5.1 km/h 7.7 km/h 75 % 0 mm
21:51 -3.5 °C -7.6 °C 34198.6 hPa East 15 km/h 15 km/h 64 % 0 mm
21:56 -3.6 °C -7.6 °C 34198.6 hPa ENE 9.3 km/h 9.3 km/h 64 % 0 mm
22:00 -4.9 °C -7.7 °C 34198.6 hPa NE 2.6 km/h 7.7 km/h 74 % 0 mm
22:01 -3.6 °C -7.6 °C 34198.6 hPa NE 9 km/h 9 km/h 64 % 0 mm
22:06 -3.6 °C -7.7 °C 34198.6 hPa East 9 km/h 9 km/h 64 % 0 mm
22:10 -4.9 °C -7.7 °C 34198.6 hPa NE 5.1 km/h 5.1 km/h 74 % 0 mm
22:16 -3.7 °C -7.4 °C 34198.6 hPa ENE 9 km/h 9 km/h 66 % 0 mm
22:20 -4.9 °C -7.8 °C 34198.6 hPa ENE 5.1 km/h 12.9 km/h 73 % 0 mm
22:21 -3.7 °C -7.5 °C 34222.3 hPa East 9.3 km/h 9.3 km/h 66 % 0 mm
22:26 -3.7 °C -7.4 °C 34222.3 hPa ENE 6 km/h 6.8 km/h 67 % 0 mm
22:30 -4.9 °C -7.9 °C 34198.6 hPa East 5.1 km/h 15.6 km/h 72 % 0 mm
22:31 -3.8 °C -7.3 °C 34222.3 hPa North 11.9 km/h 11.9 km/h 68 % 0 mm
22:36 -3.8 °C -7.3 °C 34222.3 hPa ENE 6 km/h 6 km/h 68 % 0 mm
22:40 -4.9 °C -8 °C 34198.6 hPa ENE 7.7 km/h 7.7 km/h 71 % 0 mm
22:41 -3.9 °C -7.4 °C 34222.3 hPa NNE 9 km/h 9.3 km/h 68 % 0 mm
22:46 -3.9 °C -7.2 °C 34222.3 hPa ENE 6.8 km/h 6.8 km/h 70 % 0 mm
22:50 -4.9 °C -8 °C 34198.6 hPa ENE 7.7 km/h 10.3 km/h 71 % 0 mm
22:51 -4 °C -7.3 °C 34222.3 hPa ENE 11.9 km/h 11.9 km/h 70 % 0 mm
22:56 -4 °C -7.3 °C 34222.3 hPa ENE 15 km/h 15 km/h 70 % 0 mm
23:00 -5 °C -8.1 °C 34198.6 hPa NE 7.7 km/h 10.3 km/h 71 % 0 mm
23:01 -4.1 °C -7.3 °C 34222.3 hPa ENE 11.9 km/h 11.9 km/h 70 % 0 mm
23:06 -4.1 °C -7.3 °C 34222.3 hPa East 6.8 km/h 6.8 km/h 70 % 0 mm
23:10 -5.1 °C -8.2 °C 34198.6 hPa NE 5.1 km/h 7.7 km/h 71 % 0 mm
23:11 -4.1 °C -7.2 °C 34222.3 hPa NNE 6.3 km/h 6.3 km/h 71 % 0 mm
23:16 -4.1 °C -7.2 °C 34222.3 hPa ENE 11.9 km/h 11.9 km/h 71 % 0 mm
23:20 -5.2 °C -8.2 °C 34198.6 hPa NNE 7.7 km/h 10.3 km/h 71 % 0 mm
23:21 -4.1 °C -7.2 °C 34222.3 hPa ENE 6 km/h 6 km/h 71 % 0 mm
23:26 -4.2 °C -7.3 °C 34222.3 hPa ENE 6.3 km/h 6.3 km/h 71 % 0 mm
23:30 -5.2 °C -8.2 °C 34198.6 hPa NE 7.7 km/h 10.3 km/h 71 % 0 mm
23:31 -4.2 °C -7.3 °C 34222.3 hPa East 7.6 km/h 7.6 km/h 71 % 0 mm
23:36 -4.2 °C -7.2 °C 34198.6 hPa NNE 3.1 km/h 3.1 km/h 72 % 0 mm
23:40 -5.2 °C -8.3 °C 34198.6 hPa NE 7.7 km/h 10.3 km/h 71 % 0 mm
23:41 -4.2 °C -7.2 °C 34198.6 hPa Calm     72 % 0 mm
23:46 -4.3 °C -7.3 °C 34198.6 hPa Calm     72 % 0 mm
23:50 -5.2 °C -8.3 °C 34198.6 hPa NE 7.7 km/h 10.3 km/h 71 % 0 mm
23:51 -4.3 °C -7.3 °C 34198.6 hPa SW 6 km/h 6 km/h 72 % 0 mm
23:56 -4.3 °C -7.3 °C 34198.6 hPa SW 3.1 km/h   72 % 0 mm
Meteo Sesrovires
Elogis d' Weather Underground - 2 mb

Guio original per  Jim McMurry - jmcmurry@mwt.net Adaptat per a la plantilla per  Wim van der Kuil - Leuven-Template.eu

Trobareu la nostra informacio del temps tambe a:

Weather Underground

AWEKAS